Portada
METAR-TAF:

METAR-TAF

Aeroports :

Río Hato, Panamà

latitud: 08-22-33N, longitud: 080-07-40W, altitud: 32 m

Observació

L'informe es va fer fa 4 hores i 44 minuts, a les 03:00 UTC
Vent 8 kt del Nord
Temperatura 27°C
Humitat 84%
Pressió 1008 hPa
Visibilitat 10 km o més

METAR: MPSM 200300Z 36008KT 9999 NSW 27/24 Q1008

Hora: 02:44 (07:44 UTC)

Pronòstic

L'informe es va fer fa 8 hores i 44 minuts, a les 23:00 UTC
Pronòstic vàlid del 20 a les 00 UTC al 21 a les 06 UTC
Vent 5 kt del Nord
Visibilitat 10 km o més
Núvols disperses a una alçada de 2000 ft
Núvols disperses a una alçada de 10000 ft
Probabilitat 30% :
Temporalment
l' 20 a les 19 UTC al 20 a les 23 UTC
Vent 5 kt del Sud
Visibilitat: 6000 m
Escasses núvols a una alçada de 1600 ft, Cumulonimbus.
Núvols disperses a una alçada de 9000 ft
tempesta, pluja

TAF: MPSM 192300Z 2000/2106 36005KT 9999 SCT020 SCT100 PROB30 TEMPO 2019/2023 19005KT 6000 TSRA FEW016CB SCT090

Observacions i pronòstics meteorològics de més de 4000 aeroports (METAR i TAF).

Les estacions disponibles són els punts grocs i vermells al mapa.

Posi el ratolí al punt desitjat per veure el nom de l'estació.

Feu clic per veure les observacions i els pronòstics meteorològics.

Per canviar el mapa: feu clic els botons verds amb una creu de color negre per apropar; al botó verd amb un guió per allunyar la imatge; o en les fletxes verdes per a mapes adjacents.


METAR-TAF: